Tiempo atmosférico en la estación meteorológica de La Rambla, Córdoba (200 m.)



Fecha
DESCASC
Temp. máxima en grados centígrados (hora)
DESCASC
Temp. mínima en grados centígrados (hora)
DESCASC
Temp. media en grados centígrados
DESCASC
Racha de viento máxima en m/sg (hora)
DESCASC
Velocidad máxima media en intervalos de 10 minutos(hora)
DESCASC
Precipitaciones diarias en mm
DESCASC
Precipitaciones de 00:00 a 06:00 en mm
DESCASC
Precipitaciones de 06:00 a 12:00 en mm
DESCASC
Precipitaciones de 12:00 a 18:00 en mm
DESCASC
Precipitaciones de 18:00 a 24:00 en mm
DESCASC
06-07-2020 42 (17:40) 18.3 (06:50) 30.1 7.5 (17:50) 3.89 (20:10) 0 0 0 0 0
05-07-2020 39.9 (17:30) 17.9 (06:20) 28.9 9.17 (18:20) 5.83 (18:30) 0 0 0 0 0
04-07-2020 38.4 (17:10) 15.8 (05:10) 27.1 6.94 (17:00) 3.89 (17:00) 0 0 0 0 0
03-07-2020 36.7 (18:00) 15.1 (07:20) 25.9 10.83 (15:40) 4.72 (15:50) 0 0 0 0 0
02-07-2020 37.2 (17:50) 17 (00:00) 27.1 11.67 (17:20) 5.56 (17:10) 0 0 0 0 0
01-07-2020 37.4 (17:50) 16.3 (00:00) 26.9 8.61 (17:30) 5.56 (20:30) 0 0 0 0 0
30-06-2020 38.9 (17:30) 17.5 (00:00) 28.2 9.17 (16:50) 5.28 (17:10) 0 0 0 0 0
29-06-2020 40.1 (17:30) 18 (00:00) 29 7.5 (18:00) 4.44 (19:10) 0 0 0 0 0
28-06-2020 38.8 (17:40) 16.5 (00:00) 27.6 6.94 (16:20) 4.17 (19:00) 0 0 0 0 0
27-06-2020 35.4 (18:50) 14 (00:00) 24.7 8.89 (18:00) 4.17 (01:10) 0 0 0 0 0
26-06-2020 32.5 (18:20) 17.4 (00:00) 24.9 8.89 (16:30) 5.83 (21:50) 0 0 0 0 0
25-06-2020 35.1 (16:30) 16.4 (00:00) 25.7 10.83 (10:50) 6.11 (23:40) 0 0 0 0 0
24-06-2020 38.3 (17:20) 16.9 (00:00) 27.6 8.89 (20:30) 6.11 (20:10) 0 0 0 0 0
23-06-2020 39.5 (16:10) 17 (00:00) 28.3 10.83 (18:50) 6.67 (19:00) 0 0 0 0 0
22-06-2020 40.1 (15:50) 15.3 (00:00) 27.7 9.72 (15:10) 6.11 (15:20) 0 0 0 0 0
21-06-2020 38.4 (18:10) 14.2 (00:00) 26.3 6.11 (14:20) 3.06 (02:10) 0 0 0 0 0
20-06-2020 36.2 (17:10) 12.8 (00:00) 24.5 7.22 (15:30) 3.89 (17:10) 0 0 0 0 0
19-06-2020 32.2 (17:50) 11.6 (00:00) 21.9 12.5 (17:00) 4.17 (18:00) 0 0 0 0 0
18-06-2020 32.4 (17:20) 11.9 (00:00) 22.2 11.39 (18:10) 6.39 (18:40) 0 0 0 0 0
17-06-2020 31 (17:20) 13.4 (00:00) 22.2 11.39 (14:50) 5 (22:40) 0 0 0 0 0
16-06-2020 30.9 (17:10) 13.1 (00:00) 22 12.5 (19:00) 8.06 (18:50) 0 0 0 0 0
15-06-2020 -- (--) -- (--) -- -- (--) -- (--) 0 0 0 0 0
14-06-2020 29.7 (17:10) 11.5 (00:00) 20.6 -- (--) -- (--) 0 0 0 0 0
13-06-2020 26.7 (19:00) 11.3 (00:00) 19 -- (--) -- (--) 0 0 0 0 0
12-06-2020 24.9 (16:20) 15.7 (00:00) 20.3 -- (--) -- (--) 0 0 0 0 0
11-06-2020 26.6 (17:00) 11.7 (00:00) 19.2 -- (--) -- (--) 0 0 0 0 0
10-06-2020 31.2 (17:00) 10.7 (00:00) 21 -- (--) -- (--) 0 0 0 0 0

Gráficas

Temp. máximas Temp. mínimas Temp. medias Precipitaciones Rachas de viento máximas Velocidades máximas media en intervalos de 10 minutos

Datos horarios

Fecha y hora oficial Temperatura (ºC) Velocidad del viento (km/h) Dirección del viento Racha (km/h) Dirección de racha Precipitación (mm) Presión (hPa) Tendencia (hPa) Humedad (%)
2020-07-09 23:00:00 26 6 Sudoeste 13 Sudoeste 0 -- -- 44
2020-07-09 22:00:00 28.7 6 Sudoeste 14 Sudoeste 0 -- -- 36
2020-07-09 21:00:00 32.7 12 Sudoeste 22 Sudoeste 0 -- -- 27
2020-07-09 20:00:00 34.6 12 Sudoeste 24 Sudoeste 0 -- -- 25
2020-07-09 19:00:00 35.5 9 Sudoeste 22 Sudoeste 0 -- -- 25
2020-07-09 18:00:00 35.6 14 Sudoeste 26 Sudoeste 0 -- -- 22
2020-07-09 17:00:00 35.2 11 Sudoeste 25 Sudoeste 0 -- -- 28
2020-07-09 16:00:00 34.2 13 Sudoeste 25 Sudoeste 0 -- -- 34
2020-07-09 15:00:00 32.8 12 Sudoeste 26 Sudoeste 0 -- -- 37
2020-07-09 14:00:00 31.9 11 Sudoeste 20 Sudoeste 0 -- -- 41
2020-07-09 13:00:00 29.2 6 Sur 15 Sudoeste 0 -- -- 48
2020-07-09 12:00:00 27 7 Sudoeste 14 Sudoeste 0 -- -- 56
2020-07-09 11:00:00 24.8 4 Oeste 13 Sudoeste 0 -- -- 63
2020-07-09 10:00:00 23 5 Oeste 12 Noroeste 0 -- -- 69
2020-07-09 09:00:00 20.8 4 Sur 8 Sudoeste 0 -- -- 71
2020-07-09 08:00:00 16.5 0 Calma 5 Este 0 -- -- 75
2020-07-09 07:00:00 16.4 0 Calma 9 Sudeste 0 -- -- 72
2020-07-09 06:00:00 17.2 3 Este 6 Este 0 -- -- 70
2020-07-09 05:00:00 18.2 2 Noroeste 8 Norte 0 -- -- 71
2020-07-09 04:00:00 18.5 2 Nordeste 8 Norte 0 -- -- 62
2020-07-09 03:00:00 19.5 0 Calma 8 Oeste 0 -- -- 58
2020-07-09 02:00:00 22 3 Sudoeste 7 Sudoeste 0 -- -- 55
2020-07-09 01:00:00 24.1 5 Sudoeste 18 Sudoeste 0 -- -- 49
2020-07-09 00:00:00 24.7 0 Calma 22 Sudoeste 0 -- -- 43
2020-07-08 23:00:00 26.8 12 Sur 25 Sudoeste 0 -- -- 38
2020-07-08 22:00:00 29.5 18 Sudoeste 35 Oeste 0 -- -- 32
2020-07-08 21:00:00 32.7 20 Sudoeste 38 Sudoeste 0 -- -- 30
2020-07-08 20:00:00 35.6 22 Sudoeste 39 Sudoeste 0 -- -- 28
2020-07-08 19:00:00 37.7 21 Sudoeste 44 Sudoeste 0 -- -- 26
2020-07-08 18:00:00 39.2 23 Sudoeste 42 Sur 0 -- -- 23
2020-07-08 17:00:00 39.8 19 Sur 33 Sur 0 -- -- 22
2020-07-08 16:00:00 39.7 21 Sudoeste 41 Sudoeste 0 -- -- 22
2020-07-08 15:00:00 38.3 23 Sudoeste 39 Sudoeste 0 -- -- 23
2020-07-08 14:00:00 37.7 20 Sudoeste 37 Sudoeste 0 -- -- 24
2020-07-08 13:00:00 36.9 24 Sudoeste 41 Oeste 0 -- -- 25
2020-07-08 12:00:00 35.8 22 Sudoeste 31 Sudoeste 0 -- -- 25
2020-07-08 11:00:00 33.4 15 Sudoeste 19 Sur 0 -- -- 32
2020-07-08 10:00:00 31.2 9 Sudoeste 15 Oeste 0 -- -- 35
2020-07-08 09:00:00 28.2 3 Oeste 12 Oeste 0 -- -- 39
2020-07-08 08:00:00 24.9 9 Sudeste 14 Norte 0 -- -- 44
2020-07-08 07:00:00 23.7 7 Este 17 Sur 0 -- -- 45
2020-07-08 06:00:00 23 5 Nordeste 8 Este 0 -- -- 46
2020-07-08 05:00:00 24.2 2 Noroeste 10 Nordeste 0 -- -- 43
2020-07-08 04:00:00 24.6 3 Norte 12 Noroeste 0 -- -- 41
2020-07-08 03:00:00 25.9 6 Norte 9 Norte 0 -- -- 38
2020-07-08 02:00:00 26 0 Calma 7 Sudeste 0 -- -- 39
2020-07-08 01:00:00 28.1 5 Sudeste 10 Oeste 0 -- -- 34
2020-07-08 00:00:00 28.6 3 Nordeste 7 Sudeste 0 -- -- 33
2020-07-07 23:00:00 30.2 3 Sur 9 Sudoeste 0 -- -- 32
2020-07-07 22:00:00 33.7 4 Sudoeste 11 Sur 0 -- -- 29
2020-07-07 21:00:00 37.9 6 Sudoeste 18 Sudoeste 0 -- -- 25
2020-07-07 20:00:00 40.7 12 Sudoeste 22 Sudoeste 0 -- -- 20
2020-07-07 19:00:00 42.1 13 Sudoeste 25 Sudoeste 0 -- -- 20
2020-07-07 18:00:00 42.5 14 Oeste 30 Oeste 0 -- -- 18
2020-07-07 17:00:00 42.1 14 Oeste 33 Oeste 0 -- -- 19
2020-07-07 16:00:00 42.3 15 Oeste 29 Sur 0 -- -- 20
2020-07-07 15:00:00 41.5 10 Sudoeste 23 Sudoeste 0 -- -- 23
2020-07-07 14:00:00 39.5 8 Sudoeste 17 Sudoeste 0 -- -- 25
2020-07-07 13:00:00 37.7 7 Sudoeste 15 Sudoeste 0 -- -- 29
2020-07-07 12:00:00 35.4 5 Sudoeste 15 Sudoeste 0 -- -- 33
2020-07-07 11:00:00 33 5 Sudoeste 12 Sudoeste 0 -- -- 38
2020-07-07 10:00:00 30.4 2 Sudoeste 6 Sur 0 -- -- 39
2020-07-07 09:00:00 25.7 0 Calma 4 Este 0 -- -- 47
2020-07-07 08:00:00 20.3 2 Noroeste 6 Norte 0 -- -- 59
2020-07-07 07:00:00 19.4 3 Nordeste 6 Norte 0 -- -- 60
2020-07-07 06:00:00 20 3 Nordeste 4 Nordeste 0 -- -- 56
2020-07-07 05:00:00 20.8 0 Calma 5 Este 0 -- -- 54
2020-07-07 04:00:00 22.8 0 Calma 7 Sudoeste 0 -- -- 50
2020-07-07 03:00:00 24.6 6 Sur 15 Sur 0 -- -- 47
2020-07-07 02:00:00 26.4 9 Sur 15 Sur 0 -- -- 43
2020-07-07 01:00:00 27.8 12 Sur 15 Sur 0 -- -- 41
2020-07-07 00:00:00 29.5 12 Sur 19 Sur 0 -- -- 41
2020-07-06 23:00:00 29.8 8 Sur 26 Sudoeste 0 -- -- 38
2020-07-06 22:00:00 33.2 0 Calma 10 Sur 0 -- -- 30
2020-07-06 21:00:00 37.6 8 Sur 19 Sur 0 -- -- 24
2020-07-06 20:00:00 40.3 14 Sur 20 Sur 0 -- -- 22
2020-07-06 19:00:00 41.6 10 Sur 21 Sudoeste 0 -- -- 20
2020-07-06 18:00:00 41.9 10 Sudoeste 27 Sudoeste 0 -- -- 21
2020-07-06 17:00:00 41.3 8 Sur 17 Sur 0 -- -- 21
2020-07-06 16:00:00 40.6 10 Oeste 20 Sudoeste 0 -- -- 23
2020-07-06 15:00:00 39.1 10 Sudoeste 20 Sudoeste 0 -- -- 26
2020-07-06 14:00:00 37.8 6 Sudoeste 14 Sudeste 0 -- -- 26
2020-07-06 13:00:00 35.5 5 Sur 15 Sur 0 -- -- 28
2020-07-06 12:00:00 33.2 4 Noroeste 12 Sudeste 0 -- -- 31
2020-07-06 11:00:00 31.1 7 Sudoeste 17 Sur 0 -- -- 32
2020-07-06 10:00:00 28.4 5 Sudoeste 8 Sudoeste 0 -- -- 39
2020-07-06 09:00:00 24.9 0 Calma 3 Nordeste 0 -- -- 46
2020-07-06 08:00:00 19.6 3 Norte 8 Norte 0 -- -- 57
2020-07-06 07:00:00 18.4 3 Norte 4 Norte 0 -- -- 57
2020-07-06 06:00:00 18.8 3 Nordeste 8 Sudeste 0 -- -- 56
2020-07-06 05:00:00 19.4 0 Calma 2 Norte 0 -- -- 54
2020-07-06 04:00:00 20.7 0 Calma 5 Sudoeste 0 -- -- 49
2020-07-06 03:00:00 22.4 2 Oeste 9 Sudoeste 0 -- -- 47
2020-07-06 02:00:00 23 7 Sudoeste 10 Sudoeste 0 -- -- 42
2020-07-06 01:00:00 25.1 4 Sudoeste 14 Sudoeste 0 -- -- 36
2020-07-06 00:00:00 27.6 7 Sur 18 Sudeste 0 -- -- 32
2020-07-05 23:00:00 28.2 6 Sur 15 Sudeste 0 -- -- 31
2020-07-05 22:00:00 30.5 8 Sur 25 Sur 0 -- -- 29
2020-07-05 21:00:00 34.6 12 Sur 24 Sur 0 -- -- 25
2020-07-05 20:00:00 37.2 17 Sudoeste 26 Sudoeste 0 -- -- 24
2020-07-05 19:00:00 38.4 19 Sur 33 Sudoeste 0 -- -- 24
2020-07-05 18:00:00 39.4 18 Sudoeste 31 Sudoeste 0 -- -- 25
2020-07-05 17:00:00 39.4 16 Sudoeste 27 Sur 0 -- -- 26
2020-07-05 16:00:00 38.5 9 Sudoeste 24 Sudoeste 0 -- -- 28
2020-07-05 15:00:00 37.9 10 Sudoeste 24 Sudoeste 0 -- -- 28
2020-07-05 14:00:00 35.9 9 Oeste 15 Sudoeste 0 -- -- 31
2020-07-05 13:00:00 34.9 4 Este 14 Nordeste 0 -- -- 33
2020-07-05 12:00:00 32.7 6 Nordeste 14 Sur 0 -- -- 37
2020-07-05 11:00:00 30.6 5 Sudeste 11 Sudeste 0 -- -- 45
2020-07-05 10:00:00 28.5 5 Sur 8 Sur 0 -- -- 51
2020-07-05 09:00:00 24.9 4 Norte 6 Norte 0 -- -- 58
2020-07-05 08:00:00 19.4 4 Norte 8 Norte 0 -- -- 71
2020-07-05 07:00:00 18.4 5 Norte 8 Norte 0 -- -- 70
2020-07-05 06:00:00 18.4 3 Norte 5 Noroeste 0 -- -- 66
2020-07-05 05:00:00 19.1 0 Calma 8 Norte 0 -- -- 62
2020-07-05 04:00:00 19.3 2 Nordeste 6 Norte 0 -- -- 59
2020-07-05 03:00:00 20.3 2 Este 3 Este 0 -- -- 57
2020-07-05 02:00:00 22.2 3 Sudeste 9 Sur 0 -- -- 51
2020-07-05 01:00:00 23.7 7 Sudoeste 13 Sur 0 -- -- 50
2020-07-05 00:00:00 25.5 10 Sudoeste 14 Sudoeste 0 -- -- 45
2020-07-04 23:00:00 27.8 3 Sudoeste 17 Sur 0 -- -- 38
2020-07-04 22:00:00 30.7 13 Sur 23 Sur 0 -- -- 34
2020-07-04 21:00:00 36.4 5 Sudoeste 14 Sudoeste 0 -- -- 27
2020-07-04 20:00:00 37.5 6 Sur 19 Sudoeste 0 -- -- 24
2020-07-04 19:00:00 38.2 10 Sudoeste 18 Sudoeste 0 -- -- 23
2020-07-04 18:00:00 38.1 5 Sudoeste 21 Sudoeste 0 -- -- 22
2020-07-04 17:00:00 38.1 14 Sudoeste 25 Sudoeste 0 -- -- 24
2020-07-04 16:00:00 37.2 9 Sudoeste 24 Sudoeste 0 -- -- 26
2020-07-04 15:00:00 36.7 9 Sur 15 Sudeste 0 -- -- 28
2020-07-04 14:00:00 35.2 9 Sudoeste 17 Sudoeste 0 -- -- 30
2020-07-04 13:00:00 33.6 6 Este 15 Este 0 -- -- 33
2020-07-04 12:00:00 31.7 6 Sudeste 11 Sudeste 0 -- -- 38
2020-07-04 11:00:00 29.8 4 Este 10 Norte 0 -- -- 44
2020-07-04 10:00:00 27.2 4 Norte 10 Nordeste 0 -- -- 49
2020-07-04 09:00:00 23.7 0 Calma 5 Norte 0 -- -- 54
2020-07-04 08:00:00 17 3 Nordeste 6 Norte 0 -- -- 64
2020-07-04 07:00:00 16.1 3 Norte 8 Norte 0 -- -- 64
2020-07-04 06:00:00 15.9 3 Norte 7 Este 0 -- -- 61
2020-07-04 05:00:00 16.1 3 Este 4 Este 0 -- -- 59
2020-07-04 04:00:00 17.6 0 Calma 11 Sur 0 -- -- 56
2020-07-04 03:00:00 17.6 3 Sur 6 Sudoeste 0 -- -- 54
2020-07-04 02:00:00 19.6 5 Sudoeste 8 Sudoeste 0 -- -- 52
2020-07-04 01:00:00 21.4 2 Sudeste 9 Sur 0 -- -- 47
2020-07-04 00:00:00 22.6 4 Sur 13 Sudoeste 0 -- -- 44
2020-07-03 23:00:00 23.4 3 Sur 9 Sur 0 -- -- 36
2020-07-03 22:00:00 28.3 3 Sudoeste 11 Oeste 0 -- -- 27
2020-07-03 21:00:00 34.5 5 Oeste 19 Sudoeste 0 -- -- 21
2020-07-03 20:00:00 35.7 11 Oeste 24 Oeste 0 -- -- 20
2020-07-03 19:00:00 36.2 7 Sudoeste 24 Sudoeste 0 -- -- 20
2020-07-03 18:00:00 36.7 10 Sudoeste 25 Sudoeste 0 -- -- 20
2020-07-03 17:00:00 35.9 8 Oeste 26 Sudoeste 0 -- -- 21
2020-07-03 16:00:00 35.3 9 Sudoeste 39 Sur 0 -- -- 21
2020-07-03 15:00:00 34.4 11 Sudoeste 20 Sudoeste 0 -- -- 25
2020-07-03 14:00:00 33.1 10 Sur 20 Sudeste 0 -- -- 27
2020-07-03 13:00:00 31.2 10 Sudoeste 19 Sudoeste 0 -- -- 30
2020-07-03 12:00:00 29 9 Sudoeste 17 Sudoeste 0 -- -- 37
2020-07-03 11:00:00 26.5 9 Sudoeste 15 Sudoeste 0 -- -- 42
2020-07-03 10:00:00 24.2 3 Sudoeste 8 Sudoeste 0 -- -- 54
2020-07-03 09:00:00 21.1 4 Sudoeste 8 Oeste 0 -- -- 62
2020-07-03 08:00:00 15.7 0 Calma 3 Este 0 -- -- 75
2020-07-03 07:00:00 15.4 0 Calma 5 Norte 0 -- -- 71
2020-07-03 06:00:00 16.4 2 Norte 4 Norte 0 -- -- 68
2020-07-03 05:00:00 17.3 0 Calma 6 Este 0 -- -- 65
2020-07-03 04:00:00 18 4 Este 8 Este 0 -- -- 66
2020-07-03 03:00:00 19.7 2 Norte 8 Sudoeste 0 -- -- 61
2020-07-03 02:00:00 21.7 3 Sur 10 Sudoeste 0 -- -- 59
2020-07-03 01:00:00 23.6 7 Sudoeste 12 Sudoeste 0 -- -- 57
2020-07-03 00:00:00 25.4 5 Sur 16 Sudoeste 0 -- -- 50
2020-07-02 23:00:00 27.8 12 Sur 28 Sudoeste 0 -- -- 43
2020-07-02 22:00:00 30.6 19 Sudoeste 32 Sudoeste 0 -- -- 36
2020-07-02 21:00:00 34.2 16 Oeste 31 Sudoeste 0 -- -- 29
2020-07-02 20:00:00 36.1 13 Oeste 29 Sudoeste 0 -- -- 25
2020-07-02 19:00:00 36.6 15 Sudoeste 32 Sudoeste 0 -- -- 24
2020-07-02 18:00:00 37 18 Sudoeste 42 Oeste 0 -- -- 20
2020-07-02 17:00:00 36.8 17 Sudoeste 32 Sudoeste 0 -- -- 20
2020-07-02 16:00:00 35.7 15 Sudoeste 30 Sudoeste 0 -- -- 25
2020-07-02 15:00:00 35.1 10 Oeste 30 Sudoeste 0 -- -- 31
2020-07-02 14:00:00 34.2 10 Oeste 26 Sudoeste 0 -- -- 32
2020-07-02 13:00:00 32 9 Sudoeste 20 Sur 0 -- -- 39
2020-07-02 12:00:00 29.4 9 Sur 15 Sur 0 -- -- 46
2020-07-02 11:00:00 27.2 8 Sur 14 Sudoeste 0 -- -- 54
2020-07-02 10:00:00 25 9 Sudoeste 15 Sudoeste 0 -- -- 58
2020-07-02 09:00:00 22.5 5 Sudoeste 8 Sudoeste 0 -- -- 63
2020-07-02 08:00:00 17.6 0 Calma 2 Sudeste 0 -- -- 78
2020-07-02 07:00:00 17.7 0 Calma 4 Sur 0 -- -- 72
2020-07-02 06:00:00 18.4 0 Calma 4 Sur 0 -- -- 72
2020-07-02 05:00:00 19.4 4 Sur 5 Sur 0 -- -- 70
2020-07-02 04:00:00 20.4 0 Calma 14 Sur 0 -- -- 69
2020-07-02 03:00:00 20 8 Sur 12 Sur 0 -- -- 65
2020-07-02 02:00:00 21.6 4 Sur 10 Sur 0 -- -- 53
2020-07-02 01:00:00 22.8 3 Este 6 Sur 0 -- -- 49
2020-07-02 00:00:00 24.6 6 Sur 22 Sudoeste 0 -- -- 44
2020-07-01 23:00:00 26.9 13 Sudoeste 21 Sudoeste 0 -- -- 39
2020-07-01 22:00:00 29.6 0 Calma 20 Sudoeste 0 -- -- 38
2020-07-01 21:00:00 33.6 14 Sudoeste 26 Sudoeste 0 -- -- 31
2020-07-01 20:00:00 35.7 18 Sudoeste 30 Oeste 0 -- -- 27
2020-07-01 19:00:00 37.4 12 Sudoeste 28 Oeste 0 -- -- 23
2020-07-01 18:00:00 37.3 16 Sudoeste 31 Sudoeste 0 -- -- 23
2020-07-01 17:00:00 36.9 11 Sudoeste 29 Sudoeste 0 -- -- 24
2020-07-01 16:00:00 36 11 Sudoeste 27 Sudoeste 0 -- -- 25
2020-07-01 15:00:00 34.8 14 Sudoeste 29 Sudoeste 0 -- -- 31
2020-07-01 14:00:00 33.2 10 Sudoeste 24 Sudoeste 0 -- -- 38
2020-07-01 13:00:00 31.5 11 Sudoeste 19 Sudoeste 0 -- -- 42
2020-07-01 12:00:00 28.9 9 Sudoeste 18 Sudoeste 0 -- -- 46
2020-07-01 11:00:00 26.6 5 Sudoeste 13 Sudoeste 0 -- -- 53
2020-07-01 10:00:00 24.6 5 Sur 10 Sudoeste 0 -- -- 62
2020-07-01 09:00:00 22.1 0 Calma 4 Sur 0 -- -- 73
2020-07-01 08:00:00 17.7 0 Calma 4 Norte 0 -- -- 84
2020-07-01 07:00:00 16.3 2 Sudeste 4 Sudeste 0 -- -- 82
2020-07-01 06:00:00 17.3 0 Calma 4 Este 0 -- -- 81
2020-07-01 05:00:00 18.6 0 Calma 6 Sur 0 -- -- 79
2020-07-01 04:00:00 19.5 3 Este 17 Sudoeste 0 -- -- 76
2020-07-01 03:00:00 21.1 16 Sudoeste 21 Sudoeste 0 -- -- 74
2020-07-01 02:00:00 22.6 13 Sudoeste 22 Sudoeste 0 -- -- 67
2020-07-01 01:00:00 24.3 14 Sudoeste 19 Sudoeste 0 -- -- 60
2020-07-01 00:00:00 26 6 Sudoeste 24 Sudoeste 0 -- -- 58
2020-06-30 23:00:00 28 14 Sudoeste 24 Sudoeste 0 -- -- 53
2020-06-30 22:00:00 30.6 13 Sudoeste 30 Sudoeste 0 -- -- 48
2020-06-30 21:00:00 34.5 18 Sudoeste 31 Sudoeste 0 -- -- 36
2020-06-30 20:00:00 36.8 15 Oeste 31 Oeste 0 -- -- 29
2020-06-30 19:00:00 38.1 13 Oeste 29 Oeste 0 -- -- 27
2020-06-30 18:00:00 38.5 11 Oeste 31 Sudoeste 0 -- -- 25
2020-06-30 17:00:00 38.7 16 Sudoeste 33 Sudoeste 0 -- -- 24
2020-06-30 16:00:00 38.3 14 Sudoeste 32 Sudoeste 0 -- -- 23
2020-06-30 15:00:00 37.8 18 Sudoeste 30 Sudoeste 0 -- -- 24
2020-06-30 14:00:00 36 13 Sudoeste 24 Sudoeste 0 -- -- 27
2020-06-30 13:00:00 34.3 9 Sudoeste 22 Sudoeste 0 -- -- 28
2020-06-30 12:00:00 32.5 9 Sudoeste 16 Sudoeste 0 -- -- 34
2020-06-30 11:00:00 30.6 5 Sur 11 Sur 0 -- -- 38
2020-06-30 10:00:00 26.9 5 Sudoeste 7 Sudoeste 0 -- -- 45
2020-06-30 09:00:00 22.9 0 Calma 4 Norte 0 -- -- 49
2020-06-30 08:00:00 18.2 2 Norte 5 Norte 0 -- -- 61
2020-06-30 07:00:00 17.8 2 Este 8 Norte 0 -- -- 60
2020-06-30 06:00:00 18.6 3 Norte 7 Norte 0 -- -- 55
2020-06-30 05:00:00 18.3 0 Calma 4 Noroeste 0 -- -- 54
2020-06-30 04:00:00 19.7 3 Sudoeste 6 Este 0 -- -- 53
2020-06-30 03:00:00 20.3 2 Este 5 Sudoeste 0 -- -- 47
2020-06-30 02:00:00 22 4 Sudoeste 10 Sur 0 -- -- 41
2020-06-30 01:00:00 24.4 2 Sur 13 Sur 0 -- -- 39
2020-06-30 00:00:00 25.6 4 Sudoeste 12 Sudoeste 0 -- -- 36
2020-06-29 23:00:00 28.6 7 Sudoeste 12 Sur 0 -- -- 28
2020-06-29 22:00:00 31.6 8 Sur 18 Sudeste 0 -- -- 24
2020-06-29 21:00:00 36 12 Sur 19 Sur 0 -- -- 21
2020-06-29 20:00:00 38.9 11 Sudoeste 22 Sudoeste 0 -- -- 21
2020-06-29 19:00:00 39.9 11 Sudoeste 21 Sur 0 -- -- 22
2020-06-29 18:00:00 40.1 12 Sudoeste 27 Sudoeste 0 -- -- 25
2020-06-29 17:00:00 39.5 5 Sudoeste 23 Sudoeste 0 -- -- 25
2020-06-29 16:00:00 39.4 7 Sudoeste 21 Oeste 0 -- -- 26
2020-06-29 15:00:00 37.5 6 Sudeste 16 Sudoeste 0 -- -- 30
2020-06-29 14:00:00 36.2 6 Sur 17 Sudoeste 0 -- -- 32
2020-06-29 13:00:00 34.7 8 Sudoeste 15 Sudoeste 0 -- -- 34
2020-06-29 12:00:00 33.1 6 Sur 14 Sudoeste 0 -- -- 36
2020-06-29 11:00:00 31.1 7 Sudoeste 13 Sudoeste 0 -- -- 39
2020-06-29 10:00:00 29.1 3 Sur 6 Sur 0 -- -- 41
2020-06-29 09:00:00 25.6 2 Norte 5 Norte 0 -- -- 46
2020-06-29 08:00:00 19.5 4 Norte 6 Norte 0 -- -- 62
2020-06-29 07:00:00 18.2 0 Calma 5 Norte 0 -- -- 64
2020-06-29 06:00:00 19 2 Norte 5 Este 0 -- -- 62
2020-06-29 05:00:00 20.6 0 Calma 5 Norte 0 -- -- 56
2020-06-29 04:00:00 21.9 3 Norte 6 Sudoeste 0 -- -- 55
2020-06-29 03:00:00 22.9 3 Sudeste 8 Sudoeste 0 -- -- 55
2020-06-29 02:00:00 25.6 5 Sudoeste 19 Sur 0 -- -- 54
2020-06-29 01:00:00 24.9 10 Sur 17 Sur 0 -- -- 56
2020-06-29 00:00:00 24.9 3 Sudoeste 12 Sur 0 -- -- 47
2020-06-28 23:00:00 26.7 3 Este 6 Este 0 -- -- 42
2020-06-28 22:00:00 30.8 0 Calma 8 Sudoeste 0 -- -- 36
2020-06-28 21:00:00 36.5 5 Sudoeste 17 Sudoeste 0 -- -- 27
2020-06-28 20:00:00 37.4 12 Sur 20 Sudoeste 0 -- -- 27
2020-06-28 19:00:00 38.3 15 Sudoeste 23 Sudoeste 0 -- -- 25
2020-06-28 18:00:00 38.4 5 Sur 20 Sudoeste 0 -- -- 25
2020-06-28 17:00:00 38.6 12 Sudoeste 25 Sudoeste 0 -- -- 24
2020-06-28 16:00:00 37.8 9 Oeste 17 Norte 0 -- -- 25
2020-06-28 15:00:00 36.5 7 Nordeste 16 Noroeste 0 -- -- 26
2020-06-28 14:00:00 35.2 6 Sudeste 18 Este 0 -- -- 31
2020-06-28 13:00:00 33.4 6 Este 15 Norte 0 -- -- 37
2020-06-28 12:00:00 31.2 5 Nordeste 15 Norte 0 -- -- 42
2020-06-28 11:00:00 29.4 6 Nordeste 14 Nordeste 0 -- -- 45
2020-06-28 10:00:00 26.9 3 Norte 5 Norte 0 -- -- 54
2020-06-28 09:00:00 23.7 0 Calma 3 Norte 0 -- -- 63
2020-06-28 08:00:00 17.7 2 Norte 4 Norte 0 -- -- 79
2020-06-28 07:00:00 16.6 0 Calma 4 Norte 0 -- -- 76
2020-06-28 06:00:00 17.6 0 Calma 5 Norte 0 -- -- 74
2020-06-28 05:00:00 18.5 3 Norte 4 Norte 0 -- -- 72
2020-06-28 04:00:00 19.6 0 Calma 5 Sur 0 -- -- 69
2020-06-28 03:00:00 21.1 3 Sur 9 Sur 0 -- -- 68
2020-06-28 02:00:00 22.4 6 Sur 13 Sur 0 -- -- 65
2020-06-28 01:00:00 23.9 5 Sur 16 Sudoeste 0 -- -- 59
2020-06-28 00:00:00 25.4 8 Sur 17 Sudoeste 0 -- -- 55
2020-06-27 23:00:00 27.7 12 Sudoeste 22 Sudoeste 0 -- -- 48
2020-06-27 22:00:00 28.8 2 Sur 15 Sudoeste 0 -- -- 39
2020-06-27 21:00:00 32.9 12 Sudoeste 19 Sur 0 -- -- 33
2020-06-27 20:00:00 34.7 11 Sudoeste 23 Sudoeste 0 -- -- 27
2020-06-27 19:00:00 35.2 13 Sudoeste 21 Sudoeste 0 -- -- 27
2020-06-27 18:00:00 35 11 Sudoeste 32 Sudoeste 0 -- -- 27
2020-06-27 17:00:00 34.6 8 Sudoeste 26 Sudoeste 0 -- -- 29
2020-06-27 16:00:00 33.8 6 Oeste 27 Noroeste 0 -- -- 30
2020-06-27 15:00:00 32.6 8 Sudoeste 19 Sudoeste 0 -- -- 32
2020-06-27 14:00:00 30.9 12 Sudoeste 23 Sudoeste 0 -- -- 36
2020-06-27 13:00:00 29.1 6 Sudeste 13 Sur 0 -- -- 42
2020-06-27 12:00:00 27.1 5 Sudeste 10 Sudoeste 0 -- -- 46
2020-06-27 11:00:00 24.6 5 Sur 10 Sudoeste 0 -- -- 53
2020-06-27 10:00:00 22.3 4 Sudoeste 10 Sudoeste 0 -- -- 62
2020-06-27 09:00:00 20.3 5 Sur 8 Sur 0 -- -- 68
2020-06-27 08:00:00 14.8 0 Calma 5 Norte 0 -- -- 82
2020-06-27 07:00:00 14.4 3 Norte 5 Norte 0 -- -- 81
2020-06-27 06:00:00 15 2 Norte 3 Norte 0 -- -- 77
2020-06-27 05:00:00 15.4 2 Este 3 Este 0 -- -- 75
2020-06-27 04:00:00 16.7 0 Calma 10 Sur 0 -- -- 71
2020-06-27 03:00:00 17.8 4 Sudeste 11 Sur 0 -- -- 68
2020-06-27 02:00:00 19.2 7 Sur 21 Sudoeste 0 -- -- 61
2020-06-27 01:00:00 20.7 13 Sudoeste 17 Sudoeste 0 -- -- 58
2020-06-27 00:00:00 22.8 12 Sudoeste 25 Sudoeste 0 -- -- 55
2020-06-26 23:00:00 24.9 15 Sudoeste 31 Sudoeste 0 -- -- 51
2020-06-26 22:00:00 27 19 Sudoeste 32 Sudoeste 0 -- -- 49
2020-06-26 21:00:00 29.6 17 Sudoeste 29 Sudoeste 0 -- -- 35
2020-06-26 20:00:00 31.2 19 Sudoeste 30 Sudoeste 0 -- -- 29
2020-06-26 19:00:00 31.9 13 Oeste 31 Sudoeste 0 -- -- 32
2020-06-26 18:00:00 32.4 18 Sudoeste 30 Sudoeste 0 -- -- 34
2020-06-26 17:00:00 31.9 16 Sudoeste 32 Sudoeste 0 -- -- 39
2020-06-26 16:00:00 31.1 12 Oeste 31 Sudoeste 0 -- -- 43
2020-06-26 15:00:00 29.8 12 Sudoeste 30 Sudoeste 0 -- -- 48
2020-06-26 14:00:00 28 13 Sudoeste 30 Sudoeste 0 -- -- 52
2020-06-26 13:00:00 25.8 12 Sudoeste 23 Sudoeste 0 -- -- 61
2020-06-26 12:00:00 22.3 11 Sudoeste 18 Sudoeste 0 -- -- 73
2020-06-26 11:00:00 21.4 8 Sudoeste 15 Sudoeste 0 -- -- 77
2020-06-26 10:00:00 20.7 7 Sur 12 Sur 0 -- -- 79
2020-06-26 09:00:00 19.4 6 Sudoeste 12 Sudoeste 0 -- -- 84
2020-06-26 08:00:00 18.6 8 Sur 12 Sur 0 -- -- 88
2020-06-26 07:00:00 17.5 0 Calma 4 Sudoeste 0 -- -- 87
2020-06-26 06:00:00 17.7 3 Sudoeste 6 Sur 0 -- -- 84
2020-06-26 05:00:00 18.2 4 Sur 8 Sur 0 -- -- 84
2020-06-26 04:00:00 19.5 4 Sudoeste 16 Sudoeste 0 -- -- 80
2020-06-26 03:00:00 20.4 11 Sudoeste 19 Sudoeste 0 -- -- 79
2020-06-26 02:00:00 21.2 15 Sudoeste 22 Sudoeste 0 -- -- 76
2020-06-26 01:00:00 22.2 15 Sudoeste 27 Sudoeste 0 -- -- 72
2020-06-26 00:00:00 23.6 20 Sudoeste 30 Sudoeste 0 -- -- 68
2020-06-25 23:00:00 25.2 19 Sudoeste 29 Sudoeste 0 -- -- 63
2020-06-25 22:00:00 27.4 17 Sudoeste 28 Oeste 0 -- -- 57
2020-06-25 21:00:00 30.3 14 Oeste 30 Oeste 0 -- -- 49
2020-06-25 20:00:00 32.3 16 Oeste 31 Oeste 0 -- -- 45
2020-06-25 19:00:00 34.2 17 Oeste 31 Oeste 0 -- -- 38
2020-06-25 18:00:00 34.9 12 Oeste 28 Sudoeste 0 -- -- 35
2020-06-25 17:00:00 34.9 18 Sudoeste 33 Sudoeste 0 -- -- 34
2020-06-25 16:00:00 34.5 12 Sudoeste 28 Sudoeste 0 -- -- 34
2020-06-25 15:00:00 34.1 12 Sudoeste 23 Sudoeste 0 -- -- 34
2020-06-25 14:00:00 32.3 13 Sudoeste 25 Sur 0 -- -- 33
2020-06-25 13:00:00 30.7 11 Sudoeste 20 Sudoeste 0 -- -- 40
2020-06-25 12:00:00 28.7 8 Sudoeste 19 Oeste 0 -- -- 45
2020-06-25 11:00:00 26.8 11 Sudoeste 39 Sudoeste 0 -- -- 50
2020-06-25 10:00:00 24.6 9 Sudoeste 16 Sudoeste 0 -- -- 58
2020-06-25 09:00:00 22 5 Sudoeste 8 Sudoeste 0 -- -- 69
2020-06-25 08:00:00 17.6 0 Calma 3 Norte 0 -- -- 81
2020-06-25 07:00:00 16.5 0 Calma 3 Nordeste 0 -- -- 78
2020-06-25 06:00:00 17.6 2 Norte 4 Norte 0 -- -- 75
2020-06-25 05:00:00 18.9 0 Calma 3 Sur 0 -- -- 76
2020-06-25 04:00:00 19.8 0 Calma 4 Este 0 -- -- 70
2020-06-25 03:00:00 21.3 0 Calma 8 Sur 0 -- -- 66
2020-06-25 02:00:00 22.8 5 Sur 16 Sudoeste 0 -- -- 66
2020-06-25 01:00:00 24.7 11 Sudoeste 21 Sudoeste 0 -- -- 62
2020-06-25 00:00:00 26.4 13 Sudoeste 28 Sudoeste 0 -- -- 57
2020-06-24 23:00:00 28.5 19 Sudoeste 28 Sudoeste 0 -- -- 51
2020-06-24 22:00:00 30.8 13 Sudoeste 23 Sudoeste 0 -- -- 43
2020-06-24 21:00:00 33.2 16 Sur 32 Sudoeste 0 -- -- 27
2020-06-24 20:00:00 35.4 20 Sudoeste 30 Sudoeste 0 -- -- 25
2020-06-24 19:00:00 37.4 13 Sudoeste 27 Sur 0 -- -- 25
2020-06-24 18:00:00 38 17 Sudoeste 29 Sudoeste 0 -- -- 26
2020-06-24 17:00:00 38 13 Sudoeste 25 Sudoeste 0 -- -- 27
2020-06-24 16:00:00 36.8 7 Sudoeste 24 Sudoeste 0 -- -- 27
2020-06-24 15:00:00 35.8 6 Sudoeste 27 Sur 0 -- -- 29
2020-06-24 14:00:00 35.4 9 Sudoeste 21 Sudoeste 0 -- -- 30
2020-06-24 13:00:00 33.1 5 Sur 14 Sur 0 -- -- 35
2020-06-24 12:00:00 31.5 6 Sudoeste 15 Sudoeste 0 -- -- 40
2020-06-24 11:00:00 29.6 6 Sudeste 12 Sudeste 0 -- -- 42
2020-06-24 10:00:00 27.1 4 Oeste 8 Sudoeste 0 -- -- 47
2020-06-24 09:00:00 23.7 2 Este 8 Norte 0 -- -- 54
2020-06-24 08:00:00 18 0 Calma 7 Norte 0 -- -- 68
2020-06-24 07:00:00 17.1 4 Norte 7 Norte 0 -- -- 68
2020-06-24 06:00:00 17.5 3 Noroeste 4 Norte 0 -- -- 66
2020-06-24 05:00:00 18.3 0 Calma 3 Sudoeste 0 -- -- 59
2020-06-24 04:00:00 20.3 0 Calma 6 Norte 0 -- -- 55
2020-06-24 03:00:00 21.2 0 Calma 8 Sur 0 -- -- 54
2020-06-24 02:00:00 22.6 0 Calma 10 Sur 0 -- -- 50
2020-06-24 01:00:00 24.7 9 Sur 18 Sudoeste 0 -- -- 47
2020-06-24 00:00:00 25.9 6 Sudoeste 19 Sur 0 -- -- 42
2020-06-23 23:00:00 27.4 15 Sur 22 Sur 0 -- -- 39
2020-06-23 22:00:00 28.9 9 Sur 18 Sudoeste 0 -- -- 35
2020-06-23 21:00:00 32.8 14 Sudoeste 32 Sudoeste 0 -- -- 29
2020-06-23 20:00:00 36 19 Sur 28 Sur 0 -- -- 24
2020-06-23 19:00:00 36.6 24 Sudoeste 39 Sudoeste 0 -- -- 24
2020-06-23 18:00:00 38.8 19 Sudoeste 37 Sudoeste 0 -- -- 23
2020-06-23 17:00:00 38.2 11 Sudoeste 18 Sudoeste 0 -- -- 24
2020-06-23 16:00:00 39.1 6 Oeste 18 Nordeste 0 -- -- 23
2020-06-23 15:00:00 38.1 6 Noroeste 21 Norte 0 -- -- 24
2020-06-23 14:00:00 37.3 8 Sudoeste 16 Sudoeste 0 -- -- 25
2020-06-23 13:00:00 35.2 4 Oeste 12 Norte 0 -- -- 27
2020-06-23 12:00:00 32.9 6 Nordeste 18 Nordeste 0 -- -- 29
2020-06-23 11:00:00 30.8 11 Norte 19 Nordeste 0 -- -- 32
2020-06-23 10:00:00 28.4 9 Norte 16 Norte 0 -- -- 37
2020-06-23 09:00:00 24 5 Norte 10 Noroeste 0 -- -- 45
2020-06-23 08:00:00 17.9 4 Nordeste 7 Nordeste 0 -- -- 61
2020-06-23 07:00:00 17.2 3 Norte 8 Norte 0 -- -- 60
2020-06-23 06:00:00 18 3 Nordeste 9 Nordeste 0 -- -- 59
2020-06-23 05:00:00 18.9 6 Norte 9 Norte 0 -- -- 56
2020-06-23 04:00:00 18.5 5 Norte 9 Norte 0 -- -- 55
2020-06-23 03:00:00 19.2 0 Calma 9 Norte 0 -- -- 52
2020-06-23 02:00:00 19.3 0 Calma 5 Sur 0 -- -- 51
2020-06-23 01:00:00 20.4 2 Sudeste 6 Sudoeste 0 -- -- 47
2020-06-23 00:00:00 22.2 0 Calma 10 Oeste 0 -- -- 44
2020-06-22 23:00:00 24.9 0 Calma 6 Sudoeste 0 -- -- 38
2020-06-22 22:00:00 28.5 7 Sudoeste 19 Sur 0 -- -- 33
2020-06-22 21:00:00 33.9 15 Sudoeste 25 Sudoeste 0 -- -- 26
2020-06-22 20:00:00 36.8 17 Sur 27 Sudoeste 0 -- -- 22
2020-06-22 19:00:00 38.7 16 Sur 29 Sur 0 -- -- 21
2020-06-22 18:00:00 39.3 19 Sur 35 Sur 0 -- -- 21
2020-06-22 17:00:00 39.7 19 Sudoeste 34 Sur 0 -- -- 21
2020-06-22 16:00:00 39.9 16 Sur 35 Sur 0 -- -- 21
2020-06-22 15:00:00 39.8 17 Sudeste 29 Este 0 -- -- 21
2020-06-22 14:00:00 37.5 7 Oeste 16 Sudoeste 0 -- -- 23
2020-06-22 13:00:00 35.9 7 Sudeste 17 Sudeste 0 -- -- 25
2020-06-22 12:00:00 33.3 9 Norte 17 Norte 0 -- -- 28
2020-06-22 11:00:00 31 9 Norte 20 Norte 0 -- -- 31
2020-06-22 10:00:00 29.2 7 Norte 14 Norte 0 -- -- 31
2020-06-22 09:00:00 24.3 4 Nordeste 9 Norte 0 -- -- 42
2020-06-22 08:00:00 17.9 7 Norte 11 Noroeste 0 -- -- 56
2020-06-22 07:00:00 15.5 4 Norte 7 Norte 0 -- -- 62
2020-06-22 06:00:00 15.5 4 Norte 6 Norte 0 -- -- 60
2020-06-22 05:00:00 16.4 3 Norte 8 Norte 0 -- -- 56
2020-06-22 04:00:00 16.4 3 Norte 6 Este 0 -- -- 56
2020-06-22 03:00:00 18 3 Norte 7 Norte 0 -- -- 51
2020-06-22 02:00:00 18.4 3 Sudoeste 12 Sudoeste 0 -- -- 51
2020-06-22 01:00:00 20 0 Calma 3 Sudeste 0 -- -- 49
2020-06-22 00:00:00 21.7 2 Nordeste 7 Norte 0 -- -- 45
2020-06-21 23:00:00 23.9 0 Calma 6 Norte 0 -- -- 41
2020-06-21 22:00:00 28.5 3 Este 5 Este 0 -- -- 36
2020-06-21 21:00:00 36.2 4 Sudoeste 12 Sudoeste 0 -- -- 24
2020-06-21 20:00:00 37.5 8 Oeste 14 Sudoeste 0 -- -- 20
2020-06-21 19:00:00 37.8 6 Noroeste 18 Noroeste 0 -- -- 20
2020-06-21 18:00:00 38.3 9 Sudoeste 19 Sudoeste 0 -- -- 21
2020-06-21 17:00:00 37.8 6 Oeste 18 Sudoeste 0 -- -- 21
2020-06-21 16:00:00 37.1 8 Oeste 17 Este 0 -- -- 23
2020-06-21 15:00:00 35.8 8 Sur 22 Nordeste 0 -- -- 25
2020-06-21 14:00:00 34.4 6 Noroeste 17 Este 0 -- -- 28
2020-06-21 13:00:00 32.6 8 Nordeste 19 Este 0 -- -- 31
2020-06-21 12:00:00 30.9 4 Norte 15 Nordeste 0 -- -- 35
2020-06-21 11:00:00 28.9 5 Norte 10 Nordeste 0 -- -- 37
2020-06-21 10:00:00 26.2 2 Sudoeste 7 Sur 0 -- -- 40
2020-06-21 09:00:00 22.6 0 Calma 3 Norte 0 -- -- 49
2020-06-21 08:00:00 15.1 0 Calma 5 Norte 0 -- -- 71
2020-06-21 07:00:00 14.3 0 Calma 5 Norte 0 -- -- 70
2020-06-21 06:00:00 15.2 4 Norte 6 Norte 0 -- -- 65
2020-06-21 05:00:00 16.5 5 Norte 7 Norte 0 -- -- 60
2020-06-21 04:00:00 17.1 3 Norte 5 Norte 0 -- -- 60
2020-06-21 03:00:00 18.6 0 Calma 15 Sur 0 -- -- 56
2020-06-21 02:00:00 19.5 3 Sur 8 Sudoeste 0 -- -- 54
2020-06-21 01:00:00 21.6 7 Sudoeste 14 Oeste 0 -- -- 44
2020-06-21 00:00:00 21.8 4 Sudeste 9 Oeste 0 -- -- 42
2020-06-20 23:00:00 23.1 5 Este 6 Este 0 -- -- 43
2020-06-20 22:00:00 27.7 0 Calma 13 Oeste 0 -- -- 34
2020-06-20 21:00:00 33.5 7 Oeste 18 Oeste 0 -- -- 27
2020-06-20 20:00:00 35.3 8 Oeste 23 Oeste 0 -- -- 25
2020-06-20 19:00:00 35.5 4 Noroeste 22 Sudoeste 0 -- -- 23
2020-06-20 18:00:00 36.1 11 Sur 22 Sur 0 -- -- 23
2020-06-20 17:00:00 35.7 12 Sur 25 Sur 0 -- -- 24
2020-06-20 16:00:00 35.1 8 Oeste 26 Sur 0 -- -- 25
2020-06-20 15:00:00 34.1 11 Sudoeste 22 Sudoeste 0 -- -- 29
2020-06-20 14:00:00 32.8 4 Sur 12 Noroeste 0 -- -- 29
2020-06-20 13:00:00 30.9 5 Noroeste 13 Norte 0 -- -- 33
2020-06-20 12:00:00 28.8 5 Norte 10 Norte 0 -- -- 38
2020-06-20 11:00:00 26.7 3 Norte 11 Noroeste 0 -- -- 43
2020-06-20 10:00:00 24.5 4 Norte 10 Nordeste 0 -- -- 49
2020-06-20 09:00:00 20.8 0 Calma 4 Norte 0 -- -- 60
2020-06-20 08:00:00 14 0 Calma 5 Norte 0 -- -- 78
2020-06-20 07:00:00 12.9 3 Norte 8 Norte 0 -- -- 78
2020-06-20 06:00:00 13.1 2 Norte 6 Norte 0 -- -- 76
2020-06-20 05:00:00 13.5 3 Norte 4 Nordeste 0 -- -- 73
2020-06-20 04:00:00 14.1 0 Calma 3 Este 0 -- -- 71
2020-06-20 03:00:00 15.4 0 Calma 5 Este 0 -- -- 70
2020-06-20 02:00:00 16.5 3 Nordeste 6 Norte 0 -- -- 64
2020-06-20 01:00:00 18.9 2 Sur 11 Sur 0 -- -- 58
2020-06-20 00:00:00 20.7 7 Sur 17 Sudoeste 0 -- -- 54
2020-06-19 23:00:00 21.2 3 Sur 6 Sur 0 -- -- 48
2020-06-19 22:00:00 25.6 3 Sudoeste 19 Sudoeste 0 -- -- 39
2020-06-19 21:00:00 29.7 9 Oeste 22 Sudoeste 0 -- -- 32
2020-06-19 20:00:00 31.2 10 Oeste 27 Oeste 0 -- -- 32
2020-06-19 19:00:00 32.1 11 Sudoeste 26 Sudoeste 0 -- -- 32
2020-06-19 18:00:00 32.1 15 Sudoeste 28 Sudoeste 0 -- -- 31
2020-06-19 17:00:00 32.1 13 Oeste 45 Sudoeste 0 -- -- 31
2020-06-19 16:00:00 31.2 12 Sudoeste 26 Sudoeste 0 -- -- 34
2020-06-19 15:00:00 30.7 13 Sudoeste 22 Sudoeste 0 -- -- 38
2020-06-19 14:00:00 28.6 9 Oeste 26 Sudoeste 0 -- -- 42
2020-06-19 13:00:00 27.1 8 Sudoeste 20 Sudoeste 0 -- -- 49
2020-06-19 12:00:00 24.9 8 Sudoeste 17 Sudoeste 0 -- -- 53
2020-06-19 11:00:00 23.1 10 Sudoeste 18 Sudoeste 0 -- -- 58
2020-06-19 10:00:00 21.2 5 Sudoeste 15 Sudoeste 0 -- -- 63
2020-06-19 09:00:00 18.6 4 Sur 8 Sur 0 -- -- 65
2020-06-19 08:00:00 12.7 0 Calma 3 Norte 0 -- -- 82
2020-06-19 07:00:00 11.6 0 Calma 2 Nordeste 0 -- -- 79
2020-06-19 06:00:00 12.3 0 Calma 3 Este 0 -- -- 79
2020-06-19 05:00:00 13 0 Calma 5 Este 0 -- -- 76
2020-06-19 04:00:00 14.4 0 Calma 10 Sudeste 0 -- -- 71
2020-06-19 03:00:00 15.4 8 Sur 10 Sur 0 -- -- 70
2020-06-19 02:00:00 17.2 4 Sudoeste 15 Sudoeste 0 -- -- 68
2020-06-19 01:00:00 18.5 11 Sudoeste 16 Sudoeste 0 -- -- 65
2020-06-19 00:00:00 19.6 6 Sudoeste 19 Sudoeste 0 -- -- 54
2020-06-18 23:00:00 22 14 Sudoeste 28 Sudoeste 0 -- -- 47
2020-06-18 22:00:00 24.5 13 Sudoeste 31 Sudoeste 0 -- -- 40
2020-06-18 21:00:00 27.8 18 Sudoeste 35 Sudoeste 0 -- -- 34
2020-06-18 20:00:00 30.2 19 Sudoeste 37 Sudoeste 0 -- -- 30
2020-06-18 19:00:00 31.3 15 Oeste 41 Sudoeste 0 -- -- 29
2020-06-18 18:00:00 32 17 Sudoeste 40 Sudoeste 0 -- -- 28
2020-06-18 17:00:00 32.1 13 Oeste 39 Sudoeste 0 -- -- 30
2020-06-18 16:00:00 31.4 11 Oeste 31 Sudoeste 0 -- -- 30
2020-06-18 15:00:00 30.8 15 Sudoeste 27 Sudoeste 0 -- -- 32
2020-06-18 14:00:00 29.8 9 Sudoeste 22 Sur 0 -- -- 33
2020-06-18 13:00:00 28.5 9 Sudoeste 17 Sudoeste 0 -- -- 38
2020-06-18 12:00:00 26.1 3 Nordeste 10 Norte 0 -- -- 41
2020-06-18 11:00:00 24.1 3 Sudoeste 10 Sudoeste 0 -- -- 53
2020-06-18 10:00:00 21.7 4 Sur 11 Oeste 0 -- -- 60
2020-06-18 09:00:00 19.2 4 Sur 7 Sudoeste 0 -- -- 68
2020-06-18 08:00:00 13.8 3 Norte 6 Norte 0 -- -- 85
2020-06-18 07:00:00 11.9 3 Este 7 Este 0 -- -- 83
2020-06-18 06:00:00 12.9 3 Norte 5 Este 0 -- -- 81
2020-06-18 05:00:00 13.7 4 Norte 6 Norte 0 -- -- 80
2020-06-18 04:00:00 14.9 0 Calma 5 Sudeste 0 -- -- 75
2020-06-18 03:00:00 16.2 5 Sudeste 9 Sudeste 0 -- -- 71
2020-06-18 02:00:00 18.1 5 Sur 15 Sudoeste 0 -- -- 69
2020-06-18 01:00:00 19.4 10 Sudoeste 15 Sudoeste 0 -- -- 66
2020-06-18 00:00:00 21.8 13 Sudoeste 24 Sudoeste 0 -- -- 58
2020-06-17 23:00:00 23.9 17 Sudoeste 30 Sudoeste 0 -- -- 51
2020-06-17 22:00:00 25.3 13 Sudoeste 26 Sudoeste 0 -- -- 41
2020-06-17 21:00:00 28.9 9 Oeste 23 Sudoeste 0 -- -- 34
2020-06-17 20:00:00 30 13 Oeste 28 Sudoeste 0 -- -- 32
2020-06-17 19:00:00 30.8 14 Oeste 30 Sudoeste 0 -- -- 31
2020-06-17 18:00:00 30.8 15 Oeste 35 Sudoeste 0 -- -- 29
2020-06-17 17:00:00 30.6 14 Oeste 33 Sudoeste 0 -- -- 31
2020-06-17 16:00:00 30.2 14 Sudoeste 32 Sudoeste 0 -- -- 35
2020-06-17 15:00:00 29.1 14 Oeste 41 Sudoeste 0 -- -- 36
2020-06-17 14:00:00 28.3 17 Sudoeste 32 Sudoeste 0 -- -- 39
2020-06-17 13:00:00 26.8 13 Sudoeste 27 Sudoeste 0 -- -- 43
2020-06-17 12:00:00 25 11 Sudoeste 20 Oeste 0 -- -- 49
2020-06-17 11:00:00 23.2 5 Oeste 16 Oeste 0 -- -- 53
2020-06-17 10:00:00 21.7 4 Sudoeste 11 Sudoeste 0 -- -- 63
2020-06-17 09:00:00 19.1 4 Sudoeste 8 Sudoeste 0 -- -- 75
2020-06-17 08:00:00 14.3 0 Calma 2 Nordeste 0 -- -- 90
2020-06-17 07:00:00 13.8 0 Calma 3 Norte 0 -- -- 86
2020-06-17 06:00:00 14.6 2 Norte 3 Norte 0 -- -- 85
2020-06-17 05:00:00 15.3 0 Calma 6 Sudeste 0 -- -- 83
2020-06-17 04:00:00 15.9 4 Este 6 Sudeste 0 -- -- 80
2020-06-17 03:00:00 17.7 2 Sur 8 Sur 0 -- -- 78
2020-06-17 02:00:00 19.2 3 Sur 18 Sudoeste 0 -- -- 75
2020-06-17 01:00:00 20.2 4 Sur 27 Sudoeste 0 -- -- 73
2020-06-17 00:00:00 21.4 16 Sudoeste 32 Sudoeste 0 -- -- 69
2020-06-16 23:00:00 22.7 17 Sudoeste 32 Sudoeste 0 -- -- 65
2020-06-16 22:00:00 25.1 10 Sudoeste 27 Oeste 0 -- -- 52
2020-06-16 21:00:00 27.6 15 Oeste 35 Oeste 0 -- -- 41
2020-06-16 20:00:00 28.5 17 Oeste 36 Sudoeste 0 -- -- 40
2020-06-16 19:00:00 29.3 26 Sudoeste 45 Sudoeste 0 -- -- 41
2020-06-16 18:00:00 29.9 21 Oeste 37 Sudoeste 0 -- -- 36
2020-06-16 17:00:00 30.8 17 Oeste 36 Sudoeste 0 -- -- 33
2020-06-16 16:00:00 30 17 Sudoeste 30 Sudoeste 0 -- -- 35
2020-06-16 15:00:00 29.3 15 Sudoeste 31 Oeste 0 -- -- 36
2020-06-16 14:00:00 28.3 15 Sudoeste 33 Sudoeste 0 -- -- 35
2020-06-16 13:00:00 26.5 9 Oeste 23 Oeste 0 -- -- 38
2020-06-16 12:00:00 25.2 6 Oeste 21 Sur 0 -- -- 46
2020-06-16 11:00:00 23.4 6 Sur 15 Sudoeste 0 -- -- 54
2020-06-16 10:00:00 21.4 9 Sur 13 Sudoeste 0 -- -- 59
2020-06-16 09:00:00 18.6 6 Sudoeste 9 Sudoeste 0 -- -- 66
2020-06-16 08:00:00 13.9 0 Calma 4 Norte 0 -- -- 79
2020-06-16 07:00:00 13.2 0 Calma 3 Nordeste 0 -- -- 80
2020-06-16 06:00:00 14.9 0 Calma 2 Sudoeste 0 -- -- 73
2020-06-16 05:00:00 15.2 0 Calma 3 Este 0 -- -- 72
2020-06-16 04:00:00 14.8 0 Calma 4 Sudeste 0 -- -- 73
2020-06-16 03:00:00 15.1 4 Sudeste 7 Sur 0 -- -- 67
2020-06-16 02:00:00 16.5 6 Sur 14 Sudoeste 0 -- -- 66
2020-06-16 01:00:00 18 7 Sur 28 Sudoeste 0 -- -- 62
2020-06-16 00:00:00 19.9 13 Sudoeste 24 Sudoeste 0 -- -- 56
2020-06-15 23:00:00 22.1 8 Sudoeste 27 Sudoeste 0 -- -- 52
2020-06-15 22:00:00 24.1 13 Sudoeste 28 Sudoeste 0 -- -- 44
2020-06-15 21:00:00 27.3 15 Sudoeste 26 Sudoeste 0 -- -- 37
2020-06-15 20:00:00 29.1 15 Sudoeste 29 Sudoeste 0 -- -- 34
2020-06-15 19:00:00 29.9 14 Sudoeste 27 Oeste 0 -- -- 32
2020-06-15 18:00:00 30.1 13 Oeste 30 Sudoeste 0 -- -- 32
2020-06-15 17:00:00 29.7 15 Oeste 33 Oeste 0 -- -- 33
2020-06-15 16:00:00 28.9 11 Oeste 28 Oeste 0 -- -- 33
2020-06-15 15:00:00 28.3 15 Oeste 30 Oeste 0 -- -- 35
2020-06-15 14:00:00 27.8 -- -- -- -- 0 -- -- 39
2020-06-15 13:00:00 26 -- -- -- -- -- -- -- 41
2020-06-15 12:00:00 -- -- -- -- -- -- -- -- --
2020-06-15 11:00:00 -- -- -- -- -- -- -- -- --
2020-06-15 10:00:00 -- -- -- -- -- -- -- -- --
2020-06-15 09:00:00 -- -- -- -- -- -- -- -- --
2020-06-15 08:00:00 -- -- -- -- -- -- -- -- --
2020-06-15 07:00:00 -- -- -- -- -- -- -- -- --
2020-06-15 06:00:00 -- -- -- -- -- -- -- -- --
2020-06-15 05:00:00 -- -- -- -- -- -- -- -- --
2020-06-15 04:00:00 -- -- -- -- -- -- -- -- --
2020-06-15 03:00:00 -- -- -- -- -- -- -- -- --
2020-06-15 02:00:00 -- -- -- -- -- -- -- -- --
2020-06-15 01:00:00 -- -- -- -- -- -- -- -- --
2020-06-15 00:00:00 -- -- -- -- -- -- -- -- --
2020-06-14 23:00:00 -- -- -- -- -- -- -- -- --
2020-06-14 22:00:00 -- -- -- -- -- -- -- -- --
2020-06-14 21:00:00 -- -- -- -- -- -- -- -- --
2020-06-14 20:00:00 27.6 -- -- -- -- 0 -- -- 37
2020-06-14 19:00:00 29.1 -- -- -- -- 0 -- -- 31
2020-06-14 18:00:00 29.4 -- -- -- -- 0 -- -- 30
2020-06-14 17:00:00 29.5 -- -- -- -- 0 -- -- 31
2020-06-14 16:00:00 28.5 -- -- -- -- 0 -- -- 33
2020-06-14 15:00:00 28.1 -- -- -- -- 0 -- -- 32
2020-06-14 14:00:00 26.5 -- -- -- -- 0 -- -- 34
2020-06-14 13:00:00 25.1 -- -- -- -- 0 -- -- 39
2020-06-14 12:00:00 23.9 -- -- -- -- 0 -- -- 50
2020-06-14 11:00:00 21.8 -- -- -- -- 0 -- -- 55
2020-06-14 10:00:00 19.7 -- -- -- -- 0 -- -- 62
2020-06-14 09:00:00 17.5 -- -- -- -- 0 -- -- 69
2020-06-14 08:00:00 12.5 -- -- -- -- 0 -- -- 82
2020-06-14 07:00:00 11.6 -- -- -- -- 0 -- -- 79
2020-06-14 06:00:00 13.7 -- -- -- -- 0 -- -- 74
2020-06-14 05:00:00 15.2 -- -- -- -- 0 -- -- 75
2020-06-14 04:00:00 15.9 -- -- -- -- 0 -- -- 72
2020-06-14 03:00:00 16.4 -- -- -- -- 0 -- -- 70
2020-06-14 02:00:00 16.8 -- -- -- -- 0 -- -- 65
2020-06-14 01:00:00 16.7 -- -- -- -- 0 -- -- 61
2020-06-14 00:00:00 16.6 -- -- -- -- 0 -- -- 58
2020-06-13 23:00:00 16.5 -- -- -- -- 0 -- -- 58
2020-06-13 22:00:00 20.3 -- -- -- -- 0 -- -- 44
2020-06-13 21:00:00 23.7 -- -- -- -- 0 -- -- 38
2020-06-13 20:00:00 26.1 -- -- -- -- 0 -- -- 34
2020-06-13 19:00:00 26.7 -- -- -- -- 0 -- -- 35
2020-06-13 18:00:00 26.1 -- -- -- -- 0 -- -- 35
2020-06-13 17:00:00 26.2 -- -- -- -- 0 -- -- 35
2020-06-13 16:00:00 25 -- -- -- -- 0 -- -- 39
2020-06-13 15:00:00 24.6 -- -- -- -- 0 -- -- 40
2020-06-13 14:00:00 24 -- -- -- -- 0 -- -- 44
2020-06-13 13:00:00 22.2 -- -- -- -- 0 -- -- 50
2020-06-13 12:00:00 22.1 -- -- -- -- 0 -- -- 52
2020-06-13 11:00:00 19.6 -- -- -- -- 0 -- -- 62
2020-06-13 10:00:00 17.4 -- -- -- -- 0 -- -- 71
2020-06-13 09:00:00 16.1 -- -- -- -- 0 -- -- 77
2020-06-13 08:00:00 11.9 -- -- -- -- 0 -- -- 89
2020-06-13 07:00:00 11.8 -- -- -- -- 0 -- -- 84
2020-06-13 06:00:00 13.3 -- -- -- -- 0 -- -- 86
2020-06-13 05:00:00 13.3 -- -- -- -- 0 -- -- 82
2020-06-13 04:00:00 14.4 -- -- -- -- 0 -- -- 81
2020-06-13 03:00:00 15.5 -- -- -- -- 0 -- -- 77
2020-06-13 02:00:00 15.9 -- -- -- -- 0 -- -- 76
2020-06-13 01:00:00 16 -- -- -- -- 0 -- -- 74
2020-06-13 00:00:00 16.6 -- -- -- -- 0 -- -- 69
2020-06-12 23:00:00 17.7 -- -- -- -- 0 -- -- 62
2020-06-12 22:00:00 19.1 -- -- -- -- 0 -- -- 56
2020-06-12 21:00:00 21.6 -- -- -- -- 0 -- -- 46
2020-06-12 20:00:00 23.4 -- -- -- -- 0 -- -- 38
2020-06-12 19:00:00 23.5 -- -- -- -- 0 -- -- 38
2020-06-12 18:00:00 24.2 -- -- -- -- 0 -- -- 38
2020-06-12 17:00:00 24.3 -- -- -- -- 0 -- -- 39
2020-06-12 16:00:00 24.8 -- -- -- -- 0 -- -- 37
2020-06-12 15:00:00 23.4 -- -- -- -- 0 -- -- 39
2020-06-12 14:00:00 22.5 -- -- -- -- 0 -- -- 40
2020-06-12 13:00:00 21.6 -- -- -- -- 0 -- -- 44
2020-06-12 12:00:00 20.3 -- -- -- -- 0 -- -- 47
2020-06-12 11:00:00 18.5 -- -- -- -- 0 -- -- 52
2020-06-12 10:00:00 16.9 -- -- -- -- 0 -- -- 58
2020-06-12 09:00:00 16.1 -- -- -- -- 0 -- -- 58
2020-06-12 08:00:00 15.9 -- -- -- -- 0 -- -- 80
2020-06-12 07:00:00 16.1 -- -- -- -- 0 -- -- 79
2020-06-12 06:00:00 16.7 -- -- -- -- 0 -- -- 77
2020-06-12 05:00:00 17.2 -- -- -- -- 0 -- -- 82
2020-06-12 04:00:00 17.3 -- -- -- -- 0 -- -- 86
2020-06-12 03:00:00 17.4 -- -- -- -- 0 -- -- 85
2020-06-12 02:00:00 17.8 -- -- -- -- 0 -- -- 83
2020-06-12 01:00:00 17.9 -- -- -- -- 0 -- -- 81
2020-06-12 00:00:00 18.7 -- -- -- -- 0 -- -- 76
2020-06-11 23:00:00 19.4 -- -- -- -- 0 -- -- 72
2020-06-11 22:00:00 20 -- -- -- -- 0 -- -- 66
2020-06-11 21:00:00 21 -- -- -- -- 0 -- -- 60
2020-06-11 20:00:00 22.9 -- -- -- -- 0 -- -- 54
2020-06-11 19:00:00 24.1 -- -- -- -- 0 -- -- 47
2020-06-11 18:00:00 26.1 -- -- -- -- 0 -- -- 40
2020-06-11 17:00:00 26.6 -- -- -- -- 0 -- -- 38
2020-06-11 16:00:00 26.2 -- -- -- -- 0 -- -- 39
2020-06-11 15:00:00 25.9 -- -- -- -- 0 -- -- 40
2020-06-11 14:00:00 25.4 -- -- -- -- 0 -- -- 37
2020-06-11 13:00:00 24.5 -- -- -- -- 0 -- -- 43
2020-06-11 12:00:00 22.9 -- -- -- -- 0 -- -- 51
2020-06-11 11:00:00 21.7 -- -- -- -- 0 -- -- 61
2020-06-11 10:00:00 19.6 -- -- -- -- 0 -- -- 72
2020-06-11 09:00:00 16.8 -- -- -- -- 0 -- -- 77
2020-06-11 08:00:00 12.7 -- -- -- -- 0 -- -- 83
2020-06-11 07:00:00 11.7 -- -- -- -- 0 -- -- 82
2020-06-11 06:00:00 12.2 -- -- -- -- 0 -- -- 79
2020-06-11 05:00:00 13.2 -- -- -- -- 0 -- -- 76
2020-06-11 04:00:00 14.1 -- -- -- -- 0 -- -- 69
2020-06-11 03:00:00 15.4 -- -- -- -- 0 -- -- 68
2020-06-11 02:00:00 17.4 -- -- -- -- 0 -- -- 59
2020-06-11 01:00:00 18.7 -- -- -- -- 0 -- -- 59
2020-06-11 00:00:00 20.1 -- -- -- -- 0 -- -- 54
2020-06-10 23:00:00 21.8 -- -- -- -- 0 -- -- 49
2020-06-10 22:00:00 23.6 -- -- -- -- 0 -- -- 44
2020-06-10 21:00:00 26.3 -- -- -- -- 0 -- -- 39
2020-06-10 20:00:00 29 -- -- -- -- 0 -- -- 37
2020-06-10 19:00:00 30.2 -- -- -- -- 0 -- -- 31
2020-06-10 18:00:00 30.9 -- -- -- -- 0 -- -- 29
2020-06-10 17:00:00 31.2 -- -- -- -- 0 -- -- 29
2020-06-10 16:00:00 30.2 -- -- -- -- 0 -- -- 32
2020-06-10 15:00:00 29.7 -- -- -- -- 0 -- -- 34
2020-06-10 14:00:00 28.3 -- -- -- -- 0 -- -- 36
2020-06-10 13:00:00 26.4 -- -- -- -- 0 -- -- 40
2020-06-10 12:00:00 24.6 -- -- -- -- 0 -- -- 42
2020-06-10 11:00:00 22.7 -- -- -- -- 0 -- -- 45
2020-06-10 10:00:00 20.3 -- -- -- -- 0 -- -- 54
2020-06-10 09:00:00 18.3 -- -- -- -- 0 -- -- 62
2020-06-10 08:00:00 11.9 -- -- -- -- 0 -- -- 86
2020-06-10 07:00:00 10.8 -- -- -- -- 0 -- -- 86
2020-06-10 06:00:00 11.5 -- -- -- -- 0 -- -- 82
2020-06-10 05:00:00 12.5 -- -- -- -- 0 -- -- 80
2020-06-10 04:00:00 13.8 -- -- -- -- 0 -- -- 78
2020-06-10 03:00:00 15 -- -- -- -- 0 -- -- 73
2020-06-10 02:00:00 16 -- -- -- -- 0 -- -- 71
2020-06-10 01:00:00 17.8 -- -- -- -- 0 -- -- 64
2020-06-10 00:00:00 19.4 -- -- -- -- 0 -- -- 57